Time;durP1;ratioP1;P1;durP2;ratioP2;P2;SDS_P1;SDS_P2;PMS_P1;PMS_P2;Temp;Humidity;BMP_temperature;BMP_pressure;BME280_temperature;BME280_humidity;BME280_pressure;Samples;Min_cycle;Max_cycle;Signal;HPM_P1;HPM_P2
2023/08/01 00:01:01;;;;;;;4.80;4.50;;;;;;;26.37;64.93;98989.38;5032477;28;20204;-61
2023/08/01 00:03:28;;;;;;;4.67;4.47;;;;;;;26.40;63.95;98987.94;5033038;28;20221;-61
2023/08/01 00:05:55;;;;;;;7.13;5.20;;;;;;;26.35;63.85;98990.78;5033539;28;20197;-61
2023/08/01 00:08:23;;;;;;;4.83;4.43;;;;;;;26.32;64.53;98991.41;5032267;28;20236;-61
2023/08/01 00:10:49;;;;;;;5.67;5.27;;;;;;;26.36;63.65;98986.94;5033355;28;20193;-61
2023/08/01 00:13:16;;;;;;;5.17;4.87;;;;;;;26.34;63.96;98994.63;5032466;28;20193;-60
2023/08/01 00:15:43;;;;;;;5.13;4.83;;;;;;;26.28;63.33;98982.25;5033298;28;20251;-61
2023/08/01 00:18:09;;;;;;;4.87;4.57;;;;;;;26.29;63.21;98979.22;5031966;28;20251;-61
2023/08/01 00:20:36;;;;;;;5.23;4.83;;;;;;;26.34;63.02;98972.84;5032901;28;20201;-60
2023/08/01 00:23:03;;;;;;;5.73;5.20;;;;;;;26.30;63.13;98978.09;5032817;28;20708;-61
2023/08/01 00:25:31;;;;;;;5.37;5.07;;;;;;;26.28;63.48;98976.78;5033314;28;20696;-61
2023/08/01 00:27:57;;;;;;;5.90;5.03;;;;;;;26.22;62.82;98976.16;5032914;28;20728;-61
2023/08/01 00:30:24;;;;;;;5.03;4.63;;;;;;;26.14;63.42;98973.34;5033012;28;20193;-61
2023/08/01 00:32:51;;;;;;;5.13;4.83;;;;;;;26.10;62.52;98978.63;5032265;28;20189;-64
2023/08/01 00:35:18;;;;;;;5.20;4.90;;;;;;;26.02;62.88;98964.94;5032573;28;20194;-64
2023/08/01 00:37:44;;;;;;;5.20;4.80;;;;;;;25.97;63.34;98973.22;5033132;28;20193;-64
2023/08/01 00:40:12;;;;;;;5.30;4.90;;;;;;;25.88;64.28;98964.16;5030343;28;20247;-64
2023/08/01 00:42:40;;;;;;;5.80;4.50;;;;;;;25.86;64.41;98955.47;5030790;28;20202;-65
2023/08/01 00:45:08;;;;;;;4.93;4.73;;;;;;;25.86;64.36;98956.31;5031822;28;20221;-64
2023/08/01 00:47:35;;;;;;;6.70;4.77;;;;;;;25.90;64.94;98953.75;5031644;28;20656;-62
2023/08/01 00:50:02;;;;;;;5.03;4.70;;;;;;;25.95;65.59;98953.66;5031269;28;20275;-64
2023/08/01 00:52:30;;;;;;;5.17;4.83;;;;;;;26.08;65.26;98952.78;5030360;28;20189;-60
2023/08/01 00:54:56;;;;;;;4.23;3.87;;;;;;;26.17;65.12;98945.50;5031926;28;20230;-62
2023/08/01 00:57:23;;;;;;;4.47;4.13;;;;;;;26.29;64.91;98943.03;5032057;28;20255;-61
2023/08/01 00:59:51;;;;;;;4.70;4.40;;;;;;;26.39;64.30;98946.28;5031473;28;20193;-61
2023/08/01 01:02:19;;;;;;;4.80;4.50;;;;;;;26.47;63.99;98933.81;5031700;28;20197;-62
2023/08/01 01:04:45;;;;;;;5.57;5.27;;;;;;;26.49;63.58;98937.84;5031602;28;20287;-62
2023/08/01 01:07:13;;;;;;;4.70;4.40;;;;;;;26.51;63.68;98935.63;5032042;28;20201;-61
2023/08/01 01:09:39;;;;;;;4.43;4.23;;;;;;;26.60;63.48;98932.94;5031237;28;20201;-61
2023/08/01 01:12:07;;;;;;;4.83;4.60;;;;;;;26.64;63.13;98920.31;5031507;28;20644;-62
2023/08/01 01:14:34;;;;;;;4.80;4.50;;;;;;;26.65;62.94;98914.53;5031677;28;20278;-62
2023/08/01 01:17:02;;;;;;;4.83;4.53;;;;;;;26.67;62.84;98916.97;5031797;28;20189;-64
2023/08/01 01:19:28;;;;;;;5.17;4.67;;;;;;;26.58;63.10;98924.31;5031944;28;20636;-61
2023/08/01 01:22:04;;;;;;;5.03;4.73;;;;;;;26.47;63.26;98917.47;5031286;28;20623;-62
2023/08/01 01:24:33;;;;;;;4.60;4.20;;;;;;;26.41;63.21;98907.84;5030294;28;20260;-61
2023/08/01 01:27:00;;;;;;;4.87;4.57;;;;;;;26.44;63.58;98908.00;5031696;28;20255;-63
2023/08/01 01:29:27;;;;;;;4.87;4.57;;;;;;;26.44;63.07;98901.75;5031731;28;20272;-62
2023/08/01 01:31:55;;;;;;;4.60;4.30;;;;;;;26.42;63.54;98898.56;5031244;28;20204;-61
2023/08/01 01:34:22;;;;;;;5.20;4.43;;;;;;;26.43;63.35;98900.16;5031505;28;20202;-60
2023/08/01 01:36:49;;;;;;;4.40;4.20;;;;;;;26.42;63.68;98904.00;5031399;28;20699;-60
2023/08/01 01:39:17;;;;;;;5.57;4.63;;;;;;;26.42;63.22;98896.63;5031500;28;20204;-60
2023/08/01 01:41:44;;;;;;;4.37;4.07;;;;;;;26.38;63.31;98887.47;5030702;28;20269;-61
2023/08/01 01:44:11;;;;;;;4.90;4.50;;;;;;;26.46;63.34;98894.09;5031265;28;20240;-61
2023/08/01 01:46:37;;;;;;;5.03;4.57;;;;;;;26.49;63.44;98880.63;5031541;28;20260;-61
2023/08/01 01:49:04;;;;;;;4.83;4.50;;;;;;;26.57;63.41;98893.50;5031645;28;20201;-62
2023/08/01 01:51:31;;;;;;;4.90;4.60;;;;;;;26.65;63.13;98897.38;5030623;28;20193;-62
2023/08/01 01:53:58;;;;;;;4.70;4.30;;;;;;;26.68;63.22;98891.31;5031191;28;20193;-61
2023/08/01 01:56:26;;;;;;;5.00;4.70;;;;;;;26.75;62.68;98899.84;5030839;28;20626;-62
2023/08/01 01:58:53;;;;;;;4.37;4.07;;;;;;;26.77;62.87;98897.59;5031552;28;20197;-61
2023/08/01 02:01:19;;;;;;;4.40;4.10;;;;;;;26.83;62.49;98899.06;5030698;28;20212;-62
2023/08/01 02:03:46;;;;;;;5.27;4.43;;;;;;;26.84;61.56;98906.13;5031519;28;20217;-62
2023/08/01 02:06:12;;;;;;;4.50;4.20;;;;;;;26.83;61.73;98905.31;5030433;28;20227;-61
2023/08/01 02:08:39;;;;;;;4.87;4.47;;;;;;;26.85;61.84;98907.72;5030126;28;20794;-61
2023/08/01 02:11:06;;;;;;;4.20;4.00;;;;;;;26.89;61.39;98905.97;5030672;28;20190;-62
2023/08/01 02:13:34;;;;;;;4.30;4.00;;;;;;;26.85;61.32;98911.25;5031156;28;20201;-61
2023/08/01 02:16:01;;;;;;;4.30;4.03;;;;;;;26.82;60.81;98909.16;5031206;28;20285;-62
2023/08/01 02:18:27;;;;;;;3.90;3.70;;;;;;;26.82;60.50;98911.88;5030261;28;20194;-61
2023/08/01 02:20:54;;;;;;;3.80;3.57;;;;;;;26.77;60.29;98911.22;5030876;28;20543;-62
2023/08/01 02:23:21;;;;;;;6.33;3.80;;;;;;;26.78;60.34;98915.56;5030814;28;20200;-63
2023/08/01 02:25:47;;;;;;;4.90;4.60;;;;;;;26.76;59.87;98924.06;5031538;28;20233;-63
2023/08/01 02:28:14;;;;;;;4.03;3.83;;;;;;;26.74;60.01;98922.78;5031021;28;20573;-62
2023/08/01 02:30:43;;;;;;;4.27;3.90;;;;;;;26.69;60.50;98925.63;5031118;28;20255;-61
2023/08/01 02:33:09;;;;;;;4.60;3.73;;;;;;;26.70;60.08;98929.97;5031032;28;20193;-62
2023/08/01 02:35:36;;;;;;;3.43;3.23;;;;;;;26.68;60.42;98922.09;5029952;28;20251;-62
2023/08/01 02:38:03;;;;;;;4.23;3.83;;;;;;;26.74;60.12;98922.78;5034455;28;20189;-63
2023/08/01 02:40:30;;;;;;;4.17;3.97;;;;;;;26.75;59.43;98929.81;5034701;28;20237;-64
2023/08/01 02:42:57;;;;;;;4.07;3.77;;;;;;;26.70;59.03;98935.41;5034818;28;20259;-62
2023/08/01 02:45:24;;;;;;;5.33;4.10;;;;;;;26.58;59.62;98935.19;5034081;28;20275;-62
2023/08/01 02:47:52;;;;;;;4.00;3.63;;;;;;;26.44;60.12;98929.81;5034234;28;20201;-63
2023/08/01 02:50:18;;;;;;;4.10;3.80;;;;;;;26.30;60.99;98934.50;5034172;28;20579;-60
2023/08/01 02:52:45;;;;;;;3.80;3.33;;;;;;;26.29;61.73;98932.13;5033303;28;20201;-60
2023/08/01 02:55:12;;;;;;;6.13;4.10;;;;;;;26.27;61.30;98939.78;5033848;28;20229;-61
2023/08/01 02:57:38;;;;;;;4.57;3.70;;;;;;;26.25;61.80;98936.59;5034213;28;20220;-61
2023/08/01 03:00:11;;;;;;;4.20;4.00;;;;;;;26.26;61.41;98946.38;5034103;28;20255;-62
2023/08/01 03:02:38;;;;;;;6.60;3.60;;;;;;;26.32;61.24;98947.81;5034241;28;20619;-60
2023/08/01 03:05:07;;;;;;;6.33;3.70;;;;;;;26.36;61.13;98948.81;5033964;28;20303;-61
2023/08/01 03:07:34;;;;;;;5.00;4.17;;;;;;;26.41;60.51;98945.97;5033441;28;20641;-62
2023/08/01 03:10:01;;;;;;;3.90;3.60;;;;;;;26.40;60.96;98953.34;5033480;28;20320;-63
2023/08/01 03:12:28;;;;;;;4.73;4.37;;;;;;;26.39;60.56;98959.09;5032704;28;20189;-62
2023/08/01 03:14:54;;;;;;;4.07;3.60;;;;;;;26.38;61.34;98958.28;5033952;28;20263;-63
2023/08/01 03:17:21;;;;;;;4.27;4.07;;;;;;;26.31;60.35;98959.84;5033421;28;20753;-61
2023/08/01 03:19:48;;;;;;;5.03;4.53;;;;;;;26.20;61.33;98956.56;5033282;28;20259;-61
2023/08/01 03:22:17;;;;;;;3.90;3.60;;;;;;;26.08;62.34;98960.97;5033794;28;20196;-61
2023/08/01 03:24:43;;;;;;;6.00;5.00;;;;;;;26.02;61.44;98970.38;5033792;28;20240;-63
2023/08/01 03:27:10;;;;;;;4.43;4.13;;;;;;;25.91;62.26;98966.25;5033740;28;20255;-64
2023/08/01 03:29:37;;;;;;;4.97;4.33;;;;;;;25.95;62.52;98970.00;5032387;28;20243;-61
2023/08/01 03:32:04;;;;;;;4.83;4.30;;;;;;;25.91;62.65;98974.41;5032853;28;20726;-62
2023/08/01 03:34:31;;;;;;;8.10;5.27;;;;;;;25.86;63.05;98969.91;5033614;28;20665;-61
2023/08/01 03:36:58;;;;;;;4.73;4.33;;;;;;;25.80;63.19;98967.63;5033401;28;20664;-64
2023/08/01 03:39:26;;;;;;;6.57;4.60;;;;;;;25.79;63.91;98974.16;5033502;28;20263;-61
2023/08/01 03:41:52;;;;;;;11.63;5.10;;;;;;;25.79;64.03;98972.25;5033114;28;20197;-62
2023/08/01 03:44:19;;;;;;;6.53;4.67;;;;;;;25.83;63.54;98972.41;5032832;28;20221;-61
2023/08/01 03:46:47;;;;;;;4.77;4.20;;;;;;;25.92;63.62;98976.03;5033118;28;20243;-62
2023/08/01 03:49:14;;;;;;;4.83;4.43;;;;;;;25.95;62.88;98978.97;5032806;28;20678;-62
2023/08/01 03:51:40;;;;;;;8.67;4.63;;;;;;;25.94;63.28;98971.13;5033103;28;20201;-62
2023/08/01 03:54:07;;;;;;;5.57;4.53;;;;;;;25.95;63.76;98975.44;5032986;28;20193;-62
2023/08/01 03:56:35;;;;;;;4.77;4.17;;;;;;;25.89;62.80;98971.22;5033076;28;20198;-62
2023/08/01 03:59:01;;;;;;;7.23;4.33;;;;;;;25.94;62.14;98973.84;5031800;28;20283;-62
2023/08/01 04:01:27;;;;;;;4.73;4.20;;;;;;;25.89;62.28;98971.22;5032680;28;20661;-63
2023/08/01 04:03:54;;;;;;;4.67;4.20;;;;;;;25.93;61.69;98988.53;5032585;28;20251;-61
2023/08/01 04:06:20;;;;;;;6.63;4.13;;;;;;;25.92;62.72;98971.38;5032574;28;20193;-64
2023/08/01 04:08:47;;;;;;;5.07;4.00;;;;;;;26.05;61.47;98983.38;5032363;28;20197;-61
2023/08/01 04:11:14;;;;;;;14.60;4.97;;;;;;;25.77;63.01;98969.03;5032513;28;20197;-61
2023/08/01 04:13:42;;;;;;;8.33;4.23;;;;;;;25.85;62.24;98973.72;5032499;28;20205;-61
2023/08/01 04:16:08;;;;;;;8.10;5.23;;;;;;;25.99;61.85;98976.44;5031558;28;20197;-61
2023/08/01 04:18:35;;;;;;;15.03;4.57;;;;;;;25.98;61.93;98974.81;5032280;28;20630;-63
2023/08/01 04:21:03;;;;;;;10.17;5.00;;;;;;;25.93;62.57;98977.66;5032651;28;20255;-63
2023/08/01 04:23:30;;;;;;;5.13;4.50;;;;;;;26.00;62.22;98978.06;5032497;28;20255;-61
2023/08/01 04:25:58;;;;;;;5.53;4.20;;;;;;;26.13;62.28;98982.63;5032163;28;20229;-62
2023/08/01 04:28:24;;;;;;;5.77;4.20;;;;;;;26.31;61.20;98976.19;5032487;28;20197;-63
2023/08/01 04:30:53;;;;;;;8.70;4.67;;;;;;;26.52;60.39;98983.53;5032556;28;20201;-61
2023/08/01 04:33:20;;;;;;;5.37;4.00;;;;;;;26.76;60.08;98986.75;5030864;28;20243;-62
2023/08/01 04:35:46;;;;;;;4.90;4.50;;;;;;;26.96;59.30;98993.56;5032640;28;20197;-62
2023/08/01 04:38:13;;;;;;;5.73;4.30;;;;;;;27.20;58.61;98992.06;5031404;28;20879;-63
2023/08/01 04:40:40;;;;;;;5.30;3.40;;;;;;;27.71;56.79;98992.19;5031861;28;20620;-67
2023/08/01 04:43:07;;;;;;;6.43;5.03;;;;;;;28.37;54.02;99007.28;5032348;28;20203;-68
2023/08/01 04:45:33;;;;;;;4.00;3.70;;;;;;;28.91;52.25;99006.56;5031676;28;20221;-67
2023/08/01 04:48:02;;;;;;;9.67;5.03;;;;;;;29.48;51.17;99007.75;5031843;28;20197;-67
2023/08/01 04:50:28;;;;;;;12.00;5.27;;;;;;;30.14;48.65;99014.28;5031667;28;20193;-67
2023/08/01 04:52:55;;;;;;;7.63;4.10;;;;;;;30.86;46.42;99026.31;5030983;28;20243;-66
2023/08/01 04:55:22;;;;;;;9.33;4.53;;;;;;;31.35;44.39;99016.25;5031774;28;20201;-67
2023/08/01 04:57:48;;;;;;;8.83;3.83;;;;;;;31.68;43.29;99014.94;5031631;28;20721;-67
2023/08/01 05:00:16;;;;;;;12.03;5.00;;;;;;;32.05;42.28;99008.22;5030742;28;20619;-69
2023/08/01 05:02:42;;;;;;;12.83;4.90;;;;;;;31.97;43.48;99000.94;5031141;28;20251;-66
2023/08/01 05:05:11;;;;;;;6.10;4.60;;;;;;;31.94;43.86;99001.66;5031340;28;20283;-67
2023/08/01 05:07:37;;;;;;;5.87;4.47;;;;;;;31.99;43.45;99003.34;5030996;28;20247;-67
2023/08/01 05:10:05;;;;;;;9.97;4.40;;;;;;;32.12;42.90;98997.47;5030215;28;20239;-67
2023/08/01 05:12:31;;;;;;;5.07;4.60;;;;;;;32.47;42.10;99012.22;5031748;28;20194;-67
2023/08/01 05:14:58;;;;;;;9.40;4.50;;;;;;;32.72;41.41;99005.47;5031472;28;20255;-67
2023/08/01 05:17:25;;;;;;;10.80;6.70;;;;;;;32.76;40.67;99005.53;5028952;28;20190;-69
2023/08/01 05:19:51;;;;;;;7.70;4.23;;;;;;;32.57;41.39;99003.47;5017803;28;20283;-66
2023/08/01 05:22:19;;;;;;;5.93;4.37;;;;;;;32.52;41.49;99011.19;5031811;28;20202;-66
2023/08/01 05:24:46;;;;;;;5.10;3.93;;;;;;;32.46;41.37;99010.63;5031349;28;20593;-66
2023/08/01 05:27:13;;;;;;;15.13;13.67;;;;;;;32.38;41.37;99006.06;5029759;28;20255;-66
2023/08/01 05:29:39;;;;;;;9.23;4.27;;;;;;;32.47;41.23;99006.72;5030960;28;20267;-66
2023/08/01 05:32:07;;;;;;;10.90;4.10;;;;;;;32.50;40.51;99010.75;5031651;28;20201;-67
2023/08/01 05:34:34;;;;;;;6.03;4.10;;;;;;;32.92;39.37;99006.38;5031028;28;20197;-65
2023/08/01 05:37:00;;;;;;;7.63;4.43;;;;;;;33.43;38.62;99016.34;5031334;28;20664;-66
2023/08/01 05:39:28;;;;;;;4.43;3.40;;;;;;;33.48;38.48;99009.75;5031166;28;20198;-65
2023/08/01 05:41:55;;;;;;;4.60;3.70;;;;;;;33.78;37.66;99019.91;5031761;28;20224;-65
2023/08/01 05:44:22;;;;;;;3.83;3.57;;;;;;;33.79;37.65;99023.44;5030533;28;20684;-66
2023/08/01 05:46:49;;;;;;;3.87;3.60;;;;;;;33.91;37.54;99023.38;5030621;28;20213;-66
2023/08/01 05:49:15;;;;;;;4.47;3.15;;;;;;;33.69;37.79;99016.56;5031115;28;20193;-67
2023/08/01 05:51:42;;;;;;;5.03;3.30;;;;;;;33.80;37.61;99014.06;5030735;28;20205;-68
2023/08/01 05:54:09;;;;;;;13.90;3.80;;;;;;;34.07;37.08;99015.84;5030467;28;20197;-63
2023/08/01 05:56:37;;;;;;;8.48;3.40;;;;;;;34.32;36.26;99017.97;5031285;28;20625;-62
2023/08/01 05:59:03;;;;;;;5.00;3.55;;;;;;;34.52;36.12;99019.56;5030953;28;20647;-63
2023/08/01 06:01:30;;;;;;;6.95;3.47;;;;;;;34.75;35.26;99014.09;5031744;28;20194;-62
2023/08/01 06:03:57;;;;;;;6.50;3.10;;;;;;;34.97;35.21;99021.59;5030516;28;20217;-63
2023/08/01 06:06:24;;;;;;;4.57;3.08;;;;;;;34.93;35.05;99026.25;5031703;28;20217;-63
2023/08/01 06:08:51;;;;;;;8.48;2.80;;;;;;;35.16;34.90;99018.78;5031377;28;20256;-62
2023/08/01 06:11:18;;;;;;;5.38;2.70;;;;;;;35.28;34.55;99016.63;5032215;28;20194;-62
2023/08/01 06:13:46;;;;;;;3.38;2.60;;;;;;;35.24;34.17;99020.50;5034458;28;20189;-64
2023/08/01 06:16:13;;;;;;;4.25;3.20;;;;;;;35.60;33.08;99006.09;5034602;28;20556;-63
2023/08/01 06:18:39;;;;;;;9.75;2.53;;;;;;;35.52;32.50;99012.69;5035338;28;20255;-62
2023/08/01 06:21:06;;;;;;;4.70;3.10;;;;;;;35.52;32.25;99009.94;5034417;28;20197;-63
2023/08/01 06:23:33;;;;;;;3.33;2.80;;;;;;;34.82;33.99;99001.22;5035171;28;20201;-62
2023/08/01 06:25:59;;;;;;;3.83;3.45;;;;;;;35.02;33.98;99004.75;5035290;28;20278;-62
2023/08/01 06:28:26;;;;;;;4.65;2.90;;;;;;;35.12;32.75;99006.88;5035110;28;20231;-62
2023/08/01 06:30:54;;;;;;;7.38;3.28;;;;;;;35.09;32.39;98996.56;5034971;28;20197;-61
2023/08/01 06:33:21;;;;;;;5.65;3.03;;;;;;;35.04;32.75;99010.69;5035341;28;20193;-61
2023/08/01 06:35:48;;;;;;;3.60;2.67;;;;;;;35.01;32.14;99005.91;5035177;28;20197;-61
2023/08/01 06:38:14;;;;;;;10.13;3.85;;;;;;;35.03;32.56;98998.06;5034023;28;20197;-61
2023/08/01 06:40:41;;;;;;;5.47;2.45;;;;;;;35.03;32.73;99000.81;5034813;28;20229;-62
2023/08/01 06:43:08;;;;;;;12.55;2.53;;;;;;;35.32;31.37;99002.91;5034694;28;20251;-62
2023/08/01 06:45:34;;;;;;;4.05;3.10;;;;;;;35.42;31.33;98996.72;5034924;28;20283;-62
2023/08/01 06:48:03;;;;;;;6.05;2.90;;;;;;;35.33;31.81;99007.25;5034427;28;20197;-62
2023/08/01 06:50:29;;;;;;;2.50;2.40;;;;;;;34.86;32.88;98995.78;5034784;28;20194;-61
2023/08/01 06:52:56;;;;;;;4.57;2.78;;;;;;;34.99;32.34;98997.19;5034581;28;20193;-63
2023/08/01 06:55:23;;;;;;;15.52;3.47;;;;;;;35.05;32.70;98995.72;5034147;28;20198;-62
2023/08/01 06:57:49;;;;;;;7.97;2.90;;;;;;;34.79;32.43;98995.63;5034475;28;20664;-62
2023/08/01 07:00:16;;;;;;;5.75;2.60;;;;;;;34.92;31.49;99000.63;5034299;28;20660;-62
2023/08/01 07:02:43;;;;;;;5.35;2.53;;;;;;;35.07;30.89;98996.16;5034956;28;20205;-61
2023/08/01 07:05:11;;;;;;;13.48;2.90;;;;;;;34.90;31.28;98993.88;5033926;28;20197;-62
2023/08/01 07:07:38;;;;;;;4.80;2.30;;;;;;;35.14;31.48;98993.47;5034691;28;20618;-61
2023/08/01 07:10:05;;;;;;;8.48;2.72;;;;;;;35.37;31.62;98986.81;5034452;28;20192;-63
2023/08/01 07:12:32;;;;;;;7.38;2.40;;;;;;;35.65;31.34;98987.22;5034526;28;20197;-61
2023/08/01 07:14:58;;;;;;;2.67;2.20;;;;;;;35.80;30.40;98999.31;5033000;28;20627;-62
2023/08/01 07:17:25;;;;;;;2.40;2.30;;;;;;;35.96;30.05;98986.88;5014748;28;20268;-61
2023/08/01 07:19:52;;;;;;;3.42;1.92;;;;;;;36.15;29.24;98989.50;5014544;28;20194;-60
2023/08/01 07:22:20;;;;;;;5.25;1.98;;;;;;;36.38;28.79;98992.97;5013911;28;20198;-61
2023/08/01 07:24:46;;;;;;;2.97;2.30;;;;;;;36.53;28.86;98988.38;5014036;28;20779;-60
2023/08/01 07:27:13;;;;;;;2.50;2.30;;;;;;;36.64;28.33;98989.28;5013243;28;20892;-61
2023/08/01 07:29:40;;;;;;;4.18;1.70;;;;;;;36.90;27.52;98986.41;5014465;28;20190;-60
2023/08/01 07:32:07;;;;;;;7.30;2.25;;;;;;;37.03;27.64;98980.19;5028610;28;20251;-60
2023/08/01 07:34:34;;;;;;;2.75;2.10;;;;;;;37.06;28.63;98978.63;5033068;28;20456;-60
2023/08/01 07:37:00;;;;;;;7.82;2.28;;;;;;;36.93;28.18;98963.47;5034031;28;20259;-61
2023/08/01 07:39:28;;;;;;;2.03;1.92;;;;;;;36.66;28.58;98975.88;5034090;28;20251;-60
2023/08/01 07:41:56;;;;;;;2.10;2.00;;;;;;;36.77;28.17;98974.00;5033679;28;20665;-61
2023/08/01 07:44:23;;;;;;;2.63;2.25;;;;;;;36.91;28.61;98976.94;5033700;28;20224;-61
2023/08/01 07:46:50;;;;;;;2.55;2.33;;;;;;;37.01;28.90;98965.13;5033435;28;20213;-60
2023/08/01 07:49:16;;;;;;;2.53;2.33;;;;;;;37.14;28.55;98969.22;5032958;28;20206;-60
2023/08/01 07:51:43;;;;;;;2.22;2.08;;;;;;;36.88;28.07;98966.59;5033510;28;20237;-60
2023/08/01 07:54:11;;;;;;;4.35;2.22;;;;;;;36.73;28.12;98964.88;5033184;28;20197;-61
2023/08/01 07:56:39;;;;;;;2.40;2.20;;;;;;;36.42;29.12;98965.34;5033688;28;20271;-60
2023/08/01 07:59:05;;;;;;;2.42;2.17;;;;;;;36.10;29.23;98962.16;5033395;28;20266;-61
2023/08/01 08:01:32;;;;;;;2.20;2.10;;;;;;;36.18;28.77;98963.06;5032813;28;20197;-61
2023/08/01 08:03:59;;;;;;;2.47;2.28;;;;;;;36.34;29.13;98958.13;5032330;28;20619;-61
2023/08/01 08:06:25;;;;;;;2.00;1.90;;;;;;;36.48;28.86;98950.78;5032378;28;20648;-60
2023/08/01 08:08:52;;;;;;;3.28;1.88;;;;;;;36.56;29.10;98948.88;5032952;28;20194;-60
2023/08/01 08:11:19;;;;;;;3.58;2.13;;;;;;;36.72;28.81;98952.22;5033340;28;20197;-60
2023/08/01 08:13:47;;;;;;;2.72;2.53;;;;;;;36.56;28.95;98951.63;5033445;28;20193;-61
2023/08/01 08:16:13;;;;;;;2.38;2.05;;;;;;;36.12;29.24;98945.19;5032572;28;20255;-60
2023/08/01 08:18:40;;;;;;;3.05;2.80;;;;;;;36.28;28.97;98943.03;5033104;28;20198;-60
2023/08/01 08:21:06;;;;;;;2.70;2.50;;;;;;;35.58;30.42;98937.38;5032133;28;20665;-61
2023/08/01 08:23:33;;;;;;;4.05;2.53;;;;;;;35.56;30.08;98945.22;5032264;28;20259;-60
2023/08/01 08:26:00;;;;;;;2.83;2.63;;;;;;;35.75;30.21;98930.50;5032767;28;20213;-61
2023/08/01 08:28:32;;;;;;;4.15;2.25;;;;;;;35.95;29.65;98934.72;5033078;28;20259;-60
2023/08/01 08:31:01;;;;;;;4.40;2.28;;;;;;;36.04;29.37;98933.25;5032255;28;20569;-61
2023/08/01 08:33:28;;;;;;;3.70;2.42;;;;;;;36.23;28.59;98929.53;5032686;28;20288;-60
2023/08/01 08:35:55;;;;;;;31.17;3.92;;;;;;;36.29;28.97;98930.81;5032122;28;20197;-61
2023/08/01 08:38:21;;;;;;;3.20;2.30;;;;;;;36.13;29.14;98921.91;5032637;28;20197;-61
2023/08/01 08:41:09;;;;;;;31.67;4.68;;;;;;;36.26;28.59;98920.50;5032839;28;20259;-60
2023/08/01 08:43:36;;;;;;;3.20;2.47;;;;;;;36.28;28.91;98915.38;5032800;28;20617;-61
2023/08/01 08:46:05;;;;;;;2.50;2.30;;;;;;;36.56;28.42;98923.94;5031927;28;20225;-61
2023/08/01 08:48:33;;;;;;;3.38;2.90;;;;;;;36.51;28.28;98924.31;5032321;28;20223;-60
2023/08/01 08:51:03;;;;;;;3.63;2.65;;;;;;;36.04;28.65;98921.38;5032057;28;20197;-60
2023/08/01 08:53:32;;;;;;;2.97;2.45;;;;;;;36.12;29.64;98912.00;5031983;28;20280;-61
2023/08/01 08:56:00;;;;;;;2.78;2.67;;;;;;;36.47;28.38;98910.44;5031194;28;20189;-62
2023/08/01 08:58:30;;;;;;;2.45;2.35;;;;;;;36.67;28.54;98905.47;5031830;28;20251;-61
2023/08/01 09:00:57;;;;;;;2.75;2.45;;;;;;;36.86;27.88;98902.47;5031439;28;20217;-61
2023/08/01 09:03:25;;;;;;;3.00;2.70;;;;;;;36.94;27.47;98909.66;5031687;28;20676;-60
2023/08/01 09:06:00;;;;;;;3.25;2.60;;;;;;;36.18;28.02;98899.44;5031603;28;20243;-60
2023/08/01 09:08:30;;;;;;;5.50;2.83;;;;;;;36.37;27.91;98897.28;5022816;28;20248;-61
2023/08/01 09:10:58;;;;;;;2.60;2.40;;;;;;;36.52;27.79;98895.44;5031901;28;20706;-61
2023/08/01 09:13:24;;;;;;;6.95;3.00;;;;;;;36.68;28.48;98890.47;5032109;28;20193;-60
2023/08/01 09:15:52;;;;;;;3.30;2.92;;;;;;;36.74;28.30;98894.47;5031827;28;20194;-61
2023/08/01 09:18:19;;;;;;;2.45;2.35;;;;;;;36.64;27.82;98889.63;5032260;28;20251;-61
2023/08/01 09:20:49;;;;;;;2.60;2.50;;;;;;;36.76;27.71;98881.88;5032375;28;20251;-61
2023/08/01 09:23:16;;;;;;;2.58;2.47;;;;;;;36.79;27.86;98881.06;5032100;28;20189;-60
2023/08/01 09:25:44;;;;;;;2.97;2.70;;;;;;;36.92;27.66;98884.34;5030886;28;20233;-61
2023/08/01 09:28:18;;;;;;;2.70;2.60;;;;;;;36.53;27.73;98883.19;5032034;28;20197;-63
2023/08/01 09:30:49;;;;;;;2.55;2.30;;;;;;;36.26;27.80;98879.00;5032076;28;20270;-60
2023/08/01 09:33:16;;;;;;;2.35;2.25;;;;;;;36.55;28.31;98869.78;5031583;28;20193;-60
2023/08/01 09:35:44;;;;;;;2.80;2.60;;;;;;;36.59;27.64;98871.38;5031069;28;20672;-61
2023/08/01 09:38:13;;;;;;;4.53;2.88;;;;;;;36.31;27.50;98870.34;5031686;28;20208;-62
2023/08/01 09:40:40;;;;;;;3.03;2.80;;;;;;;36.24;27.47;98867.50;5032068;28;20251;-61
2023/08/01 09:43:07;;;;;;;3.50;3.30;;;;;;;36.36;27.53;98856.16;5031851;28;20190;-62
2023/08/01 09:45:35;;;;;;;5.30;3.20;;;;;;;36.39;28.35;98860.94;5032997;28;20735;-61
2023/08/01 09:48:03;;;;;;;4.07;2.72;;;;;;;36.43;28.13;98867.28;5036074;28;20256;-62
2023/08/01 09:50:30;;;;;;;3.20;3.00;;;;;;;35.93;28.08;98859.66;5035067;28;20189;-61
2023/08/01 09:53:08;;;;;;;4.03;3.35;;;;;;;35.81;28.74;98846.06;5035708;28;20738;-62
2023/08/01 09:55:36;;;;;;;3.03;2.70;;;;;;;35.89;28.14;98837.47;5036268;28;20247;-61
2023/08/01 09:58:03;;;;;;;3.53;3.30;;;;;;;35.92;29.10;98842.25;5036005;28;20211;-61
2023/08/01 10:00:30;;;;;;;5.18;3.10;;;;;;;36.18;28.19;98838.56;5034989;28;20238;-61
2023/08/01 10:03:00;;;;;;;3.10;2.90;;;;;;;36.25;28.26;98833.16;5035858;28;20193;-62
2023/08/01 10:05:30;;;;;;;2.75;2.65;;;;;;;36.39;27.68;98836.03;5035928;28;20193;-61
2023/08/01 10:08:00;;;;;;;3.10;2.60;;;;;;;36.43;27.66;98834.09;5034995;28;20213;-62
2023/08/01 10:10:27;;;;;;;2.97;2.78;;;;;;;36.10;28.61;98831.38;5035200;28;20197;-61
2023/08/01 10:12:55;;;;;;;4.50;2.85;;;;;;;36.10;29.51;98831.38;5035021;28;20194;-62
2023/08/01 10:15:22;;;;;;;3.15;2.95;;;;;;;36.10;28.65;98820.31;5035455;28;20274;-61
2023/08/01 10:17:49;;;;;;;3.50;3.15;;;;;;;36.02;29.24;98818.66;5035237;28;20201;-61
2023/08/01 10:20:17;;;;;;;3.58;3.38;;;;;;;36.10;28.95;98810.03;5034824;28;20193;-61
2023/08/01 10:22:45;;;;;;;3.15;2.83;;;;;;;35.96;29.82;98815.44;5034670;28;20738;-62
2023/08/01 10:25:12;;;;;;;3.20;3.03;;;;;;;36.12;29.62;98804.91;5034301;28;20275;-62
2023/08/01 10:27:40;;;;;;;5.85;2.90;;;;;;;35.68;30.24;98803.25;5035330;28;20283;-61
2023/08/01 10:30:09;;;;;;;6.90;2.88;;;;;;;35.91;29.65;98803.91;5035420;28;20669;-62
2023/08/01 10:32:38;;;;;;;3.45;3.25;;;;;;;36.03;28.90;98792.56;5035270;28;20220;-61
2023/08/01 10:35:06;;;;;;;3.13;2.97;;;;;;;36.11;29.80;98797.81;5034252;28;20766;-61
2023/08/01 10:37:43;;;;;;;4.38;3.35;;;;;;;36.23;29.30;98792.03;5034405;28;20716;-61
2023/08/01 10:40:10;;;;;;;3.63;3.33;;;;;;;35.95;28.89;98783.44;5034760;28;20196;-61
2023/08/01 10:42:41;;;;;;;4.05;3.75;;;;;;;35.71;29.42;98781.16;5035069;28;20283;-61
2023/08/01 10:45:22;;;;;;;3.30;3.20;;;;;;;35.53;29.49;98780.19;5034759;28;20672;-62
2023/08/01 10:47:48;;;;;;;3.70;3.40;;;;;;;35.49;30.52;98775.78;5035037;28;20299;-69
2023/08/01 10:50:16;;;;;;;6.35;3.70;;;;;;;35.13;30.42;98771.75;5033101;28;20193;-60
2023/08/01 10:52:43;;;;;;;4.03;3.60;;;;;;;35.30;30.11;98778.69;5034625;28;20284;-61
2023/08/01 10:55:11;;;;;;;3.42;3.28;;;;;;;35.37;29.98;98765.78;5034503;28;20247;-61
2023/08/01 10:57:49;;;;;;;4.03;3.83;;;;;;;35.31;30.29;98749.91;5033623;28;20247;-61
2023/08/01 11:00:19;;;;;;;5.25;3.50;;;;;;;35.44;30.35;98754.03;5034109;28;20227;-61
2023/08/01 11:02:50;;;;;;;3.50;3.20;;;;;;;35.42;30.30;98757.16;5033705;28;20273;-61
2023/08/01 11:05:17;;;;;;;3.85;3.65;;;;;;;35.14;31.03;98764.25;5034744;28;20268;-61
2023/08/01 11:07:54;;;;;;;4.63;4.30;;;;;;;34.88;31.64;98743.03;5034185;28;20217;-61
2023/08/01 11:10:21;;;;;;;4.43;4.13;;;;;;;34.36;32.47;98737.50;5033911;28;20264;-62
2023/08/01 11:12:49;;;;;;;4.20;3.95;;;;;;;34.73;31.77;98740.38;5034265;28;20665;-61
2023/08/01 11:15:16;;;;;;;4.43;4.20;;;;;;;34.92;30.95;98732.81;5034363;28;20272;-62
2023/08/01 11:17:48;;;;;;;4.85;3.80;;;;;;;35.13;31.19;98740.56;5034320;28;20339;-62
2023/08/01 11:20:15;;;;;;;4.32;4.07;;;;;;;34.68;31.77;98732.44;5033425;28;20539;-61
2023/08/01 11:22:51;;;;;;;4.13;3.92;;;;;;;34.99;31.74;98726.59;5034353;28;20193;-61
2023/08/01 11:25:18;;;;;;;3.95;3.75;;;;;;;34.92;31.03;98707.19;5033276;28;20216;-60
2023/08/01 11:27:44;;;;;;;4.03;3.83;;;;;;;35.04;31.04;98726.25;5033660;28;20217;-61
2023/08/01 11:30:12;;;;;;;4.97;4.57;;;;;;;34.81;31.98;98714.50;5033301;28;20193;-61
2023/08/01 11:32:39;;;;;;;7.45;4.43;;;;;;;35.03;31.82;98702.59;5033623;28;20569;-61
2023/08/01 11:35:08;;;;;;;4.05;3.75;;;;;;;35.04;31.75;98702.22;5032280;28;20185;-62